sensor_id;sensor_type;location;lat;lon;timestamp;pressure;altitude;pressure_sealevel;temperature
10869;BMP180;62667;48.698;8.762;2023-05-10T00:02:18;95382.00;;;12.80
10869;BMP180;62667;48.698;8.762;2023-05-10T00:04:47;95381.00;;;12.80
10869;BMP180;62667;48.698;8.762;2023-05-10T00:07:15;95384.00;;;12.70
10869;BMP180;62667;48.698;8.762;2023-05-10T00:09:43;95392.00;;;12.60
10869;BMP180;62667;48.698;8.762;2023-05-10T00:12:11;95389.00;;;12.50
10869;BMP180;62667;48.698;8.762;2023-05-10T00:14:38;95382.00;;;12.50
10869;BMP180;62667;48.698;8.762;2023-05-10T00:17:05;95378.00;;;12.50
10869;BMP180;62667;48.698;8.762;2023-05-10T00:19:33;95379.00;;;12.50
10869;BMP180;62667;48.698;8.762;2023-05-10T00:22:02;95380.00;;;12.40
10869;BMP180;62667;48.698;8.762;2023-05-10T00:24:29;95382.00;;;12.30
10869;BMP180;62667;48.698;8.762;2023-05-10T00:26:56;95388.00;;;12.20
10869;BMP180;62667;48.698;8.762;2023-05-10T00:29:24;95378.00;;;12.10
10869;BMP180;62667;48.698;8.762;2023-05-10T00:31:51;95374.00;;;12.10
10869;BMP180;62667;48.698;8.762;2023-05-10T00:34:19;95380.00;;;12.30
10869;BMP180;62667;48.698;8.762;2023-05-10T00:36:46;95381.00;;;12.20
10869;BMP180;62667;48.698;8.762;2023-05-10T00:39:15;95383.00;;;12.20
10869;BMP180;62667;48.698;8.762;2023-05-10T00:41:43;95397.00;;;12.30
10869;BMP180;62667;48.698;8.762;2023-05-10T00:44:10;95392.00;;;12.30
10869;BMP180;62667;48.698;8.762;2023-05-10T00:46:37;95403.00;;;12.30
10869;BMP180;62667;48.698;8.762;2023-05-10T00:49:05;95402.00;;;12.20
10869;BMP180;62667;48.698;8.762;2023-05-10T00:51:33;95397.00;;;12.10
10869;BMP180;62667;48.698;8.762;2023-05-10T00:54:01;95392.00;;;12.10
10869;BMP180;62667;48.698;8.762;2023-05-10T00:56:30;95389.00;;;12.20
10869;BMP180;62667;48.698;8.762;2023-05-10T00:58:58;95398.00;;;12.30
10869;BMP180;62667;48.698;8.762;2023-05-10T01:01:25;95396.00;;;12.20
10869;BMP180;62667;48.698;8.762;2023-05-10T01:03:54;95403.00;;;12.10
10869;BMP180;62667;48.698;8.762;2023-05-10T01:06:21;95401.00;;;12.10
10869;BMP180;62667;48.698;8.762;2023-05-10T01:08:49;95406.00;;;12.20
10869;BMP180;62667;48.698;8.762;2023-05-10T01:11:16;95406.00;;;12.30
10869;BMP180;62667;48.698;8.762;2023-05-10T01:13:52;95399.00;;;12.20
10869;BMP180;62667;48.698;8.762;2023-05-10T01:16:20;95411.00;;;12.10
10869;BMP180;62667;48.698;8.762;2023-05-10T01:18:47;95415.00;;;12.10
10869;BMP180;62667;48.698;8.762;2023-05-10T01:21:22;95412.00;;;12.00
10869;BMP180;62667;48.698;8.762;2023-05-10T01:24:21;95413.00;;;12.00
10869;BMP180;62667;48.698;8.762;2023-05-10T01:33:07;95409.00;;;11.80
10869;BMP180;62667;48.698;8.762;2023-05-10T01:35:40;95399.00;;;11.90
10869;BMP180;62667;48.698;8.762;2023-05-10T01:38:15;95407.00;;;11.90
10869;BMP180;62667;48.698;8.762;2023-05-10T01:40:52;95409.00;;;11.90
10869;BMP180;62667;48.698;8.762;2023-05-10T01:43:25;95406.00;;;11.90
10869;BMP180;62667;48.698;8.762;2023-05-10T01:45:59;95415.00;;;11.80
10869;BMP180;62667;48.698;8.762;2023-05-10T01:48:33;95416.00;;;11.80
10869;BMP180;62667;48.698;8.762;2023-05-10T01:51:00;95419.00;;;11.80
10869;BMP180;62667;48.698;8.762;2023-05-10T01:53:28;95421.00;;;11.80
10869;BMP180;62667;48.698;8.762;2023-05-10T01:55:57;95426.00;;;11.70
10869;BMP180;62667;48.698;8.762;2023-05-10T01:58:29;95424.00;;;11.70
10869;BMP180;62667;48.698;8.762;2023-05-10T02:00:58;95420.00;;;11.60
10869;BMP180;62667;48.698;8.762;2023-05-10T02:03:28;95415.00;;;11.60
10869;BMP180;62667;48.698;8.762;2023-05-10T02:05:59;95424.00;;;11.60
10869;BMP180;62667;48.698;8.762;2023-05-10T02:08:27;95429.00;;;11.60
10869;BMP180;62667;48.698;8.762;2023-05-10T02:10:56;95425.00;;;11.50
10869;BMP180;62667;48.698;8.762;2023-05-10T02:13:25;95431.00;;;11.40
10869;BMP180;62667;48.698;8.762;2023-05-10T02:15:53;95431.00;;;11.50
10869;BMP180;62667;48.698;8.762;2023-05-10T02:18:23;95432.00;;;11.40
10869;BMP180;62667;48.698;8.762;2023-05-10T02:20:53;95431.00;;;11.40
10869;BMP180;62667;48.698;8.762;2023-05-10T02:23:24;95436.00;;;11.30
10869;BMP180;62667;48.698;8.762;2023-05-10T02:25:54;95443.00;;;11.30
10869;BMP180;62667;48.698;8.762;2023-05-10T02:28:23;95446.00;;;11.50
10869;BMP180;62667;48.698;8.762;2023-05-10T02:30:52;95447.00;;;11.50
10869;BMP180;62667;48.698;8.762;2023-05-10T02:33:21;95444.00;;;11.60
10869;BMP180;62667;48.698;8.762;2023-05-10T02:35:50;95440.00;;;11.70
10869;BMP180;62667;48.698;8.762;2023-05-10T02:38:19;95445.00;;;11.80
10869;BMP180;62667;48.698;8.762;2023-05-10T02:40:49;95443.00;;;11.60
10869;BMP180;62667;48.698;8.762;2023-05-10T02:43:17;95447.00;;;11.60
10869;BMP180;62667;48.698;8.762;2023-05-10T02:45:47;95445.00;;;11.50
10869;BMP180;62667;48.698;8.762;2023-05-10T02:48:15;95448.00;;;11.50
10869;BMP180;62667;48.698;8.762;2023-05-10T02:50:44;95447.00;;;11.50
10869;BMP180;62667;48.698;8.762;2023-05-10T02:53:18;95443.00;;;11.60
10869;BMP180;62667;48.698;8.762;2023-05-10T02:55:51;95446.00;;;11.40
10869;BMP180;62667;48.698;8.762;2023-05-10T02:58:19;95450.00;;;11.50
10869;BMP180;62667;48.698;8.762;2023-05-10T03:00:47;95453.00;;;11.60
10869;BMP180;62667;48.698;8.762;2023-05-10T03:03:14;95454.00;;;11.60
10869;BMP180;62667;48.698;8.762;2023-05-10T03:05:42;95448.00;;;11.70
10869;BMP180;62667;48.698;8.762;2023-05-10T03:08:09;95454.00;;;11.80
10869;BMP180;62667;48.698;8.762;2023-05-10T03:10:44;95459.00;;;11.70
10869;BMP180;62667;48.698;8.762;2023-05-10T03:13:24;95467.00;;;11.80
10869;BMP180;62667;48.698;8.762;2023-05-10T03:15:59;95464.00;;;11.60
10869;BMP180;62667;48.698;8.762;2023-05-10T03:18:32;95466.00;;;11.50
10869;BMP180;62667;48.698;8.762;2023-05-10T03:21:03;95474.00;;;11.50
10869;BMP180;62667;48.698;8.762;2023-05-10T03:23:40;95465.00;;;11.40
10869;BMP180;62667;48.698;8.762;2023-05-10T03:26:08;95483.00;;;11.40
10869;BMP180;62667;48.698;8.762;2023-05-10T03:28:37;95465.00;;;11.50
10869;BMP180;62667;48.698;8.762;2023-05-10T03:31:06;95468.00;;;11.50
10869;BMP180;62667;48.698;8.762;2023-05-10T03:33:34;95477.00;;;11.40
10869;BMP180;62667;48.698;8.762;2023-05-10T03:36:01;95461.00;;;11.30
10869;BMP180;62667;48.698;8.762;2023-05-10T03:38:29;95469.00;;;11.30
10869;BMP180;62667;48.698;8.762;2023-05-10T03:40:56;95476.00;;;11.30
10869;BMP180;62667;48.698;8.762;2023-05-10T03:43:24;95476.00;;;11.30
10869;BMP180;62667;48.698;8.762;2023-05-10T03:45:52;95483.00;;;11.30
10869;BMP180;62667;48.698;8.762;2023-05-10T03:48:20;95476.00;;;11.40
10869;BMP180;62667;48.698;8.762;2023-05-10T03:50:48;95484.00;;;11.40
10869;BMP180;62667;48.698;8.762;2023-05-10T03:53:16;95488.00;;;11.30
10869;BMP180;62667;48.698;8.762;2023-05-10T03:55:43;95477.00;;;11.30
10869;BMP180;62667;48.698;8.762;2023-05-10T03:58:11;95480.00;;;11.10
10869;BMP180;62667;48.698;8.762;2023-05-10T04:00:39;95484.00;;;11.10
10869;BMP180;62667;48.698;8.762;2023-05-10T04:03:11;95478.00;;;11.10
10869;BMP180;62667;48.698;8.762;2023-05-10T04:05:38;95481.00;;;11.00
10869;BMP180;62667;48.698;8.762;2023-05-10T04:08:06;95477.00;;;11.20
10869;BMP180;62667;48.698;8.762;2023-05-10T04:10:34;95489.00;;;11.10
10869;BMP180;62667;48.698;8.762;2023-05-10T04:13:01;95485.00;;;11.10
10869;BMP180;62667;48.698;8.762;2023-05-10T04:15:29;95485.00;;;11.10
10869;BMP180;62667;48.698;8.762;2023-05-10T04:17:56;95487.00;;;11.00
10869;BMP180;62667;48.698;8.762;2023-05-10T04:20:25;95487.00;;;11.00
10869;BMP180;62667;48.698;8.762;2023-05-10T04:22:52;95489.00;;;11.10
10869;BMP180;62667;48.698;8.762;2023-05-10T04:25:20;95486.00;;;11.30
10869;BMP180;62667;48.698;8.762;2023-05-10T04:27:47;95483.00;;;11.30
10869;BMP180;62667;48.698;8.762;2023-05-10T04:30:15;95490.00;;;11.30
10869;BMP180;62667;48.698;8.762;2023-05-10T04:32:42;95488.00;;;11.30
10869;BMP180;62667;48.698;8.762;2023-05-10T04:35:10;95491.00;;;11.20
10869;BMP180;62667;48.698;8.762;2023-05-10T04:37:38;95490.00;;;11.30
10869;BMP180;62667;48.698;8.762;2023-05-10T04:40:07;95494.00;;;11.40
10869;BMP180;62667;48.698;8.762;2023-05-10T04:42:34;95496.00;;;11.40
10869;BMP180;62667;48.698;8.762;2023-05-10T04:45:02;95496.00;;;11.40
10869;BMP180;62667;48.698;8.762;2023-05-10T04:47:30;95494.00;;;11.60
10869;BMP180;62667;48.698;8.762;2023-05-10T04:49:57;95488.00;;;11.60
10869;BMP180;62667;48.698;8.762;2023-05-10T04:52:25;95492.00;;;11.70
10869;BMP180;62667;48.698;8.762;2023-05-10T04:54:53;95496.00;;;11.60
10869;BMP180;62667;48.698;8.762;2023-05-10T04:57:21;95490.00;;;11.60
10869;BMP180;62667;48.698;8.762;2023-05-10T04:59:48;95497.00;;;11.50
10869;BMP180;62667;48.698;8.762;2023-05-10T05:02:16;95491.00;;;11.50
10869;BMP180;62667;48.698;8.762;2023-05-10T05:04:43;95497.00;;;11.40
10869;BMP180;62667;48.698;8.762;2023-05-10T05:07:11;95497.00;;;11.50
10869;BMP180;62667;48.698;8.762;2023-05-10T05:09:38;95505.00;;;11.70
10869;BMP180;62667;48.698;8.762;2023-05-10T05:12:07;95502.00;;;11.80
10869;BMP180;62667;48.698;8.762;2023-05-10T05:14:39;95501.00;;;11.70
10869;BMP180;62667;48.698;8.762;2023-05-10T05:17:07;95508.00;;;11.70
10869;BMP180;62667;48.698;8.762;2023-05-10T05:19:34;95507.00;;;11.80
10869;BMP180;62667;48.698;8.762;2023-05-10T05:22:02;95511.00;;;12.00
10869;BMP180;62667;48.698;8.762;2023-05-10T05:24:32;95517.00;;;12.00
10869;BMP180;62667;48.698;8.762;2023-05-10T05:27:01;95510.00;;;12.00
10869;BMP180;62667;48.698;8.762;2023-05-10T05:29:30;95515.00;;;12.10
10869;BMP180;62667;48.698;8.762;2023-05-10T05:31:58;95514.00;;;12.10
10869;BMP180;62667;48.698;8.762;2023-05-10T05:34:25;95520.00;;;12.10
10869;BMP180;62667;48.698;8.762;2023-05-10T05:36:53;95510.00;;;12.20
10869;BMP180;62667;48.698;8.762;2023-05-10T05:39:20;95506.00;;;12.20
10869;BMP180;62667;48.698;8.762;2023-05-10T05:41:48;95507.00;;;12.30
10869;BMP180;62667;48.698;8.762;2023-05-10T05:44:15;95514.00;;;12.40
10869;BMP180;62667;48.698;8.762;2023-05-10T05:46:44;95523.00;;;12.50
10869;BMP180;62667;48.698;8.762;2023-05-10T05:49:12;95517.00;;;12.40
10869;BMP180;62667;48.698;8.762;2023-05-10T05:51:39;95524.00;;;12.40
10869;BMP180;62667;48.698;8.762;2023-05-10T05:54:07;95527.00;;;12.30
10869;BMP180;62667;48.698;8.762;2023-05-10T05:56:34;95524.00;;;12.50
10869;BMP180;62667;48.698;8.762;2023-05-10T05:59:01;95522.00;;;12.40
10869;BMP180;62667;48.698;8.762;2023-05-10T06:01:29;95541.00;;;12.20
10869;BMP180;62667;48.698;8.762;2023-05-10T06:03:58;95546.00;;;12.10
10869;BMP180;62667;48.698;8.762;2023-05-10T06:06:26;95544.00;;;12.20
10869;BMP180;62667;48.698;8.762;2023-05-10T06:08:53;95535.00;;;12.20
10869;BMP180;62667;48.698;8.762;2023-05-10T06:11:21;95543.00;;;11.90
10869;BMP180;62667;48.698;8.762;2023-05-10T06:13:49;95542.00;;;12.00
10869;BMP180;62667;48.698;8.762;2023-05-10T06:16:16;95541.00;;;11.80
10869;BMP180;62667;48.698;8.762;2023-05-10T06:18:43;95539.00;;;11.90
10869;BMP180;62667;48.698;8.762;2023-05-10T06:21:12;95543.00;;;12.30
10869;BMP180;62667;48.698;8.762;2023-05-10T06:23:40;95541.00;;;12.40
10869;BMP180;62667;48.698;8.762;2023-05-10T06:26:08;95554.00;;;12.40
10869;BMP180;62667;48.698;8.762;2023-05-10T06:28:36;95554.00;;;12.70
10869;BMP180;62667;48.698;8.762;2023-05-10T06:31:04;95558.00;;;12.40
10869;BMP180;62667;48.698;8.762;2023-05-10T06:33:32;95559.00;;;12.50
10869;BMP180;62667;48.698;8.762;2023-05-10T06:35:59;95557.00;;;12.80
10869;BMP180;62667;48.698;8.762;2023-05-10T06:38:28;95557.00;;;13.00
10869;BMP180;62667;48.698;8.762;2023-05-10T06:40:55;95560.00;;;13.20
10869;BMP180;62667;48.698;8.762;2023-05-10T06:43:23;95556.00;;;13.30
10869;BMP180;62667;48.698;8.762;2023-05-10T06:45:51;95553.00;;;13.40
10869;BMP180;62667;48.698;8.762;2023-05-10T06:48:18;95553.00;;;13.60
10869;BMP180;62667;48.698;8.762;2023-05-10T06:50:46;95563.00;;;13.30
10869;BMP180;62667;48.698;8.762;2023-05-10T06:53:13;95561.00;;;13.10
10869;BMP180;62667;48.698;8.762;2023-05-10T06:55:42;95555.00;;;13.10
10869;BMP180;62667;48.698;8.762;2023-05-10T06:58:10;95558.00;;;13.20
10869;BMP180;62667;48.698;8.762;2023-05-10T07:00:37;95551.00;;;12.90
10869;BMP180;62667;48.698;8.762;2023-05-10T07:03:06;95551.00;;;12.70
10869;BMP180;62667;48.698;8.762;2023-05-10T07:05:34;95554.00;;;13.00
10869;BMP180;62667;48.698;8.762;2023-05-10T07:08:01;95559.00;;;13.10
10869;BMP180;62667;48.698;8.762;2023-05-10T07:10:29;95556.00;;;13.20
10869;BMP180;62667;48.698;8.762;2023-05-10T07:12:57;95550.00;;;13.30
10869;BMP180;62667;48.698;8.762;2023-05-10T07:15:25;95557.00;;;13.30
10869;BMP180;62667;48.698;8.762;2023-05-10T07:17:52;95558.00;;;13.50
10869;BMP180;62667;48.698;8.762;2023-05-10T07:20:20;95567.00;;;13.50
10869;BMP180;62667;48.698;8.762;2023-05-10T07:22:47;95568.00;;;13.40
10869;BMP180;62667;48.698;8.762;2023-05-10T07:25:15;95558.00;;;13.50
10869;BMP180;62667;48.698;8.762;2023-05-10T07:27:42;95569.00;;;13.20
10869;BMP180;62667;48.698;8.762;2023-05-10T07:30:12;95572.00;;;13.20
10869;BMP180;62667;48.698;8.762;2023-05-10T07:32:40;95565.00;;;13.20
10869;BMP180;62667;48.698;8.762;2023-05-10T07:35:08;95560.00;;;13.20
10869;BMP180;62667;48.698;8.762;2023-05-10T07:37:35;95565.00;;;13.00
10869;BMP180;62667;48.698;8.762;2023-05-10T07:40:03;95557.00;;;13.10
10869;BMP180;62667;48.698;8.762;2023-05-10T07:42:31;95546.00;;;13.40
10869;BMP180;62667;48.698;8.762;2023-05-10T07:44:58;95565.00;;;13.20
10869;BMP180;62667;48.698;8.762;2023-05-10T07:47:27;95554.00;;;13.40
10869;BMP180;62667;48.698;8.762;2023-05-10T07:49:54;95559.00;;;13.80
10869;BMP180;62667;48.698;8.762;2023-05-10T07:52:22;95553.00;;;13.90
10869;BMP180;62667;48.698;8.762;2023-05-10T07:54:49;95563.00;;;13.70
10869;BMP180;62667;48.698;8.762;2023-05-10T07:57:17;95566.00;;;14.00
10869;BMP180;62667;48.698;8.762;2023-05-10T07:59:44;95571.00;;;13.50
10869;BMP180;62667;48.698;8.762;2023-05-10T08:02:12;95567.00;;;13.70
10869;BMP180;62667;48.698;8.762;2023-05-10T08:04:41;95573.00;;;13.60
10869;BMP180;62667;48.698;8.762;2023-05-10T08:07:09;95582.00;;;13.50
10869;BMP180;62667;48.698;8.762;2023-05-10T08:09:36;95580.00;;;13.40
10869;BMP180;62667;48.698;8.762;2023-05-10T08:12:05;95578.00;;;13.20
10869;BMP180;62667;48.698;8.762;2023-05-10T08:14:32;95575.00;;;13.50
10869;BMP180;62667;48.698;8.762;2023-05-10T08:16:59;95586.00;;;13.70
10869;BMP180;62667;48.698;8.762;2023-05-10T08:19:27;95589.00;;;13.60
10869;BMP180;62667;48.698;8.762;2023-05-10T08:21:56;95581.00;;;13.90
10869;BMP180;62667;48.698;8.762;2023-05-10T08:24:23;95583.00;;;14.00
10869;BMP180;62667;48.698;8.762;2023-05-10T08:26:51;95588.00;;;14.30
10869;BMP180;62667;48.698;8.762;2023-05-10T08:29:18;95576.00;;;14.50
10869;BMP180;62667;48.698;8.762;2023-05-10T08:31:45;95588.00;;;14.70
10869;BMP180;62667;48.698;8.762;2023-05-10T08:34:13;95589.00;;;14.90
10869;BMP180;62667;48.698;8.762;2023-05-10T08:36:41;95595.00;;;15.20
10869;BMP180;62667;48.698;8.762;2023-05-10T08:39:09;95609.00;;;15.50
10869;BMP180;62667;48.698;8.762;2023-05-10T08:41:39;95613.00;;;14.30
10869;BMP180;62667;48.698;8.762;2023-05-10T08:44:08;95606.00;;;14.20
10869;BMP180;62667;48.698;8.762;2023-05-10T08:46:37;95612.00;;;13.90
10869;BMP180;62667;48.698;8.762;2023-05-10T08:49:09;95614.00;;;14.00
10869;BMP180;62667;48.698;8.762;2023-05-10T08:51:41;95614.00;;;13.90
10869;BMP180;62667;48.698;8.762;2023-05-10T08:54:11;95618.00;;;14.20
10869;BMP180;62667;48.698;8.762;2023-05-10T08:56:38;95615.00;;;13.90
10869;BMP180;62667;48.698;8.762;2023-05-10T08:59:06;95617.00;;;14.20
10869;BMP180;62667;48.698;8.762;2023-05-10T09:01:36;95615.00;;;14.40
10869;BMP180;62667;48.698;8.762;2023-05-10T09:04:03;95622.00;;;14.70
10869;BMP180;62667;48.698;8.762;2023-05-10T09:06:31;95633.00;;;14.60
10869;BMP180;62667;48.698;8.762;2023-05-10T09:09:00;95629.00;;;14.70
10869;BMP180;62667;48.698;8.762;2023-05-10T09:11:31;95632.00;;;14.20
10869;BMP180;62667;48.698;8.762;2023-05-10T09:13:58;95618.00;;;14.20
10869;BMP180;62667;48.698;8.762;2023-05-10T09:16:26;95628.00;;;14.20
10869;BMP180;62667;48.698;8.762;2023-05-10T09:18:53;95629.00;;;14.00
10869;BMP180;62667;48.698;8.762;2023-05-10T09:21:20;95619.00;;;14.20
10869;BMP180;62667;48.698;8.762;2023-05-10T09:23:48;95625.00;;;14.60
10869;BMP180;62667;48.698;8.762;2023-05-10T09:26:17;95626.00;;;14.80
10869;BMP180;62667;48.698;8.762;2023-05-10T09:28:54;95621.00;;;15.00
10869;BMP180;62667;48.698;8.762;2023-05-10T09:31:23;95624.00;;;15.00
10869;BMP180;62667;48.698;8.762;2023-05-10T09:33:51;95626.00;;;15.20
10869;BMP180;62667;48.698;8.762;2023-05-10T09:36:19;95625.00;;;14.90
10869;BMP180;62667;48.698;8.762;2023-05-10T09:38:47;95619.00;;;14.60
10869;BMP180;62667;48.698;8.762;2023-05-10T09:41:19;95619.00;;;15.00
10869;BMP180;62667;48.698;8.762;2023-05-10T09:43:46;95621.00;;;15.10
10869;BMP180;62667;48.698;8.762;2023-05-10T09:46:16;95637.00;;;14.70
10869;BMP180;62667;48.698;8.762;2023-05-10T09:48:44;95636.00;;;14.40
10869;BMP180;62667;48.698;8.762;2023-05-10T09:51:19;95643.00;;;14.40
10869;BMP180;62667;48.698;8.762;2023-05-10T09:53:47;95630.00;;;15.00
10869;BMP180;62667;48.698;8.762;2023-05-10T09:56:34;95631.00;;;15.30
10869;BMP180;62667;48.698;8.762;2023-05-10T09:59:05;95639.00;;;15.10
10869;BMP180;62667;48.698;8.762;2023-05-10T10:01:34;95650.00;;;14.90
10869;BMP180;62667;48.698;8.762;2023-05-10T10:04:04;95651.00;;;14.70
10869;BMP180;62667;48.698;8.762;2023-05-10T10:06:36;95662.00;;;14.80
10869;BMP180;62667;48.698;8.762;2023-05-10T10:09:04;95679.00;;;14.10
10869;BMP180;62667;48.698;8.762;2023-05-10T10:11:33;95682.00;;;13.60
10869;BMP180;62667;48.698;8.762;2023-05-10T10:14:01;95701.00;;;13.20
10869;BMP180;62667;48.698;8.762;2023-05-10T10:16:29;95688.00;;;12.60
10869;BMP180;62667;48.698;8.762;2023-05-10T10:18:58;95685.00;;;12.20
10869;BMP180;62667;48.698;8.762;2023-05-10T10:21:26;95690.00;;;12.40
10869;BMP180;62667;48.698;8.762;2023-05-10T10:23:53;95687.00;;;12.60
10869;BMP180;62667;48.698;8.762;2023-05-10T10:26:22;95683.00;;;12.50
10869;BMP180;62667;48.698;8.762;2023-05-10T10:28:56;95679.00;;;12.60
10869;BMP180;62667;48.698;8.762;2023-05-10T10:31:31;95680.00;;;12.60
10869;BMP180;62667;48.698;8.762;2023-05-10T10:34:05;95688.00;;;12.60
10869;BMP180;62667;48.698;8.762;2023-05-10T10:36:39;95681.00;;;12.70
10869;BMP180;62667;48.698;8.762;2023-05-10T10:39:10;95682.00;;;13.00
10869;BMP180;62667;48.698;8.762;2023-05-10T10:41:38;95683.00;;;13.00
10869;BMP180;62667;48.698;8.762;2023-05-10T10:44:35;95675.00;;;13.00
10869;BMP180;62667;48.698;8.762;2023-05-10T10:47:22;95671.00;;;13.20
10869;BMP180;62667;48.698;8.762;2023-05-10T10:50:03;95682.00;;;13.60
10869;BMP180;62667;48.698;8.762;2023-05-10T10:52:32;95674.00;;;13.60
10869;BMP180;62667;48.698;8.762;2023-05-10T10:55:02;95678.00;;;13.80
10869;BMP180;62667;48.698;8.762;2023-05-10T10:57:32;95684.00;;;13.80
10869;BMP180;62667;48.698;8.762;2023-05-10T11:00:19;95685.00;;;14.30
10869;BMP180;62667;48.698;8.762;2023-05-10T11:02:49;95682.00;;;14.60
10869;BMP180;62667;48.698;8.762;2023-05-10T11:08:16;95681.00;;;14.50
10869;BMP180;62667;48.698;8.762;2023-05-10T11:11:04;95672.00;;;15.00
10869;BMP180;62667;48.698;8.762;2023-05-10T11:13:34;95671.00;;;15.20
10869;BMP180;62667;48.698;8.762;2023-05-10T11:16:15;95666.00;;;15.40
10869;BMP180;62667;48.698;8.762;2023-05-10T11:18:57;95668.00;;;15.20
10869;BMP180;62667;48.698;8.762;2023-05-10T11:21:27;95676.00;;;15.10
10869;BMP180;62667;48.698;8.762;2023-05-10T11:23:56;95670.00;;;14.70
10869;BMP180;62667;48.698;8.762;2023-05-10T11:26:24;95664.00;;;14.60
10869;BMP180;62667;48.698;8.762;2023-05-10T11:28:53;95679.00;;;14.70
10869;BMP180;62667;48.698;8.762;2023-05-10T11:31:22;95665.00;;;14.60
10869;BMP180;62667;48.698;8.762;2023-05-10T11:33:54;95655.00;;;14.60
10869;BMP180;62667;48.698;8.762;2023-05-10T11:36:23;95666.00;;;14.60
10869;BMP180;62667;48.698;8.762;2023-05-10T11:38:53;95674.00;;;15.00
10869;BMP180;62667;48.698;8.762;2023-05-10T11:41:21;95665.00;;;15.20
10869;BMP180;62667;48.698;8.762;2023-05-10T11:43:51;95675.00;;;15.40
10869;BMP180;62667;48.698;8.762;2023-05-10T11:46:20;95675.00;;;15.20
10869;BMP180;62667;48.698;8.762;2023-05-10T11:48:49;95675.00;;;14.70
10869;BMP180;62667;48.698;8.762;2023-05-10T11:51:20;95682.00;;;14.30
10869;BMP180;62667;48.698;8.762;2023-05-10T11:53:49;95672.00;;;14.60
10869;BMP180;62667;48.698;8.762;2023-05-10T11:56:18;95686.00;;;14.70
10869;BMP180;62667;48.698;8.762;2023-05-10T11:58:53;95684.00;;;14.40
10869;BMP180;62667;48.698;8.762;2023-05-10T12:01:21;95686.00;;;14.80
10869;BMP180;62667;48.698;8.762;2023-05-10T12:03:49;95685.00;;;14.90
10869;BMP180;62667;48.698;8.762;2023-05-10T12:06:18;95687.00;;;14.80
10869;BMP180;62667;48.698;8.762;2023-05-10T12:08:46;95687.00;;;15.00
10869;BMP180;62667;48.698;8.762;2023-05-10T12:11:14;95681.00;;;15.00
10869;BMP180;62667;48.698;8.762;2023-05-10T12:13:45;95692.00;;;14.90
10869;BMP180;62667;48.698;8.762;2023-05-10T12:16:13;95687.00;;;14.60
10869;BMP180;62667;48.698;8.762;2023-05-10T12:18:41;95693.00;;;14.80
10869;BMP180;62667;48.698;8.762;2023-05-10T12:21:10;95689.00;;;14.90
10869;BMP180;62667;48.698;8.762;2023-05-10T12:23:39;95696.00;;;14.80
10869;BMP180;62667;48.698;8.762;2023-05-10T12:26:06;95684.00;;;14.50
10869;BMP180;62667;48.698;8.762;2023-05-10T12:28:36;95693.00;;;14.80
10869;BMP180;62667;48.698;8.762;2023-05-10T12:31:06;95692.00;;;14.60
10869;BMP180;62667;48.698;8.762;2023-05-10T12:33:37;95687.00;;;14.80
10869;BMP180;62667;48.698;8.762;2023-05-10T12:36:08;95693.00;;;14.70
10869;BMP180;62667;48.698;8.762;2023-05-10T12:38:37;95698.00;;;14.70
10869;BMP180;62667;48.698;8.762;2023-05-10T12:41:06;95696.00;;;14.60
10869;BMP180;62667;48.698;8.762;2023-05-10T12:43:35;95699.00;;;14.40
10869;BMP180;62667;48.698;8.762;2023-05-10T12:46:07;95697.00;;;14.70
10869;BMP180;62667;48.698;8.762;2023-05-10T12:48:35;95694.00;;;14.60
10869;BMP180;62667;48.698;8.762;2023-05-10T12:51:04;95698.00;;;14.80
10869;BMP180;62667;48.698;8.762;2023-05-10T12:53:34;95689.00;;;14.50
10869;BMP180;62667;48.698;8.762;2023-05-10T12:56:02;95686.00;;;14.70
10869;BMP180;62667;48.698;8.762;2023-05-10T12:58:29;95693.00;;;14.60
10869;BMP180;62667;48.698;8.762;2023-05-10T13:00:58;95689.00;;;14.90
10869;BMP180;62667;48.698;8.762;2023-05-10T13:03:27;95689.00;;;15.60
10869;BMP180;62667;48.698;8.762;2023-05-10T13:05:55;95699.00;;;15.60
10869;BMP180;62667;48.698;8.762;2023-05-10T13:08:22;95695.00;;;15.20
10869;BMP180;62667;48.698;8.762;2023-05-10T13:10:49;95687.00;;;14.90
10869;BMP180;62667;48.698;8.762;2023-05-10T13:13:17;95699.00;;;15.10
10869;BMP180;62667;48.698;8.762;2023-05-10T13:15:44;95700.00;;;14.60
10869;BMP180;62667;48.698;8.762;2023-05-10T13:18:12;95701.00;;;14.50
10869;BMP180;62667;48.698;8.762;2023-05-10T13:20:41;95678.00;;;15.20
10869;BMP180;62667;48.698;8.762;2023-05-10T13:23:10;95686.00;;;16.00
10869;BMP180;62667;48.698;8.762;2023-05-10T13:25:37;95683.00;;;15.40
10869;BMP180;62667;48.698;8.762;2023-05-10T13:28:05;95683.00;;;15.50
10869;BMP180;62667;48.698;8.762;2023-05-10T13:30:32;95687.00;;;15.20
10869;BMP180;62667;48.698;8.762;2023-05-10T13:33:00;95695.00;;;15.00
10869;BMP180;62667;48.698;8.762;2023-05-10T13:35:27;95678.00;;;14.80
10869;BMP180;62667;48.698;8.762;2023-05-10T13:37:56;95679.00;;;15.30
10869;BMP180;62667;48.698;8.762;2023-05-10T13:40:23;95680.00;;;15.10
10869;BMP180;62667;48.698;8.762;2023-05-10T13:42:51;95676.00;;;14.90
10869;BMP180;62667;48.698;8.762;2023-05-10T13:45:19;95674.00;;;15.40
10869;BMP180;62667;48.698;8.762;2023-05-10T13:47:47;95666.00;;;15.50
10869;BMP180;62667;48.698;8.762;2023-05-10T13:50:14;95678.00;;;15.50
10869;BMP180;62667;48.698;8.762;2023-05-10T13:52:41;95674.00;;;15.70
10869;BMP180;62667;48.698;8.762;2023-05-10T13:55:10;95677.00;;;15.90
10869;BMP180;62667;48.698;8.762;2023-05-10T13:57:39;95668.00;;;16.20
10869;BMP180;62667;48.698;8.762;2023-05-10T14:00:07;95675.00;;;16.00
10869;BMP180;62667;48.698;8.762;2023-05-10T14:02:35;95670.00;;;15.40
10869;BMP180;62667;48.698;8.762;2023-05-10T14:05:03;95687.00;;;15.50
10869;BMP180;62667;48.698;8.762;2023-05-10T14:07:31;95681.00;;;15.30
10869;BMP180;62667;48.698;8.762;2023-05-10T14:09:58;95681.00;;;15.30
10869;BMP180;62667;48.698;8.762;2023-05-10T14:12:27;95675.00;;;14.90
10869;BMP180;62667;48.698;8.762;2023-05-10T14:14:55;95670.00;;;15.30
10869;BMP180;62667;48.698;8.762;2023-05-10T14:17:24;95680.00;;;15.60
10869;BMP180;62667;48.698;8.762;2023-05-10T14:19:52;95670.00;;;15.90
10869;BMP180;62667;48.698;8.762;2023-05-10T14:22:20;95668.00;;;15.80
10869;BMP180;62667;48.698;8.762;2023-05-10T14:24:48;95664.00;;;16.00
10869;BMP180;62667;48.698;8.762;2023-05-10T14:27:16;95668.00;;;16.10
10869;BMP180;62667;48.698;8.762;2023-05-10T14:29:45;95664.00;;;16.20